sensor_id;sensor_type;location;lat;lon;timestamp;temperature;humidity
13091;DHT22;6611;52.604;13.438;2022-12-13T00:02:32;-0.14;76.08
13091;DHT22;6611;52.604;13.438;2022-12-13T00:07:35;-0.14;76.11
13091;DHT22;6611;52.604;13.438;2022-12-13T00:12:37;-0.19;76.96
13091;DHT22;6611;52.604;13.438;2022-12-13T00:17:38;-0.19;76.57
13091;DHT22;6611;52.604;13.438;2022-12-13T00:22:41;-0.11;76.22
13091;DHT22;6611;52.604;13.438;2022-12-13T00:27:43;-0.07;76.33
13091;DHT22;6611;52.604;13.438;2022-12-13T00:32:45;-0.10;76.35
13091;DHT22;6611;52.604;13.438;2022-12-13T00:37:48;-0.15;76.89
13091;DHT22;6611;52.604;13.438;2022-12-13T00:42:50;-0.19;77.02
13091;DHT22;6611;52.604;13.438;2022-12-13T00:47:52;-0.17;77.48
13091;DHT22;6611;52.604;13.438;2022-12-13T00:52:55;-0.25;77.78
13091;DHT22;6611;52.604;13.438;2022-12-13T00:57:57;-0.23;77.54
13091;DHT22;6611;52.604;13.438;2022-12-13T01:02:58;-0.26;77.11
13091;DHT22;6611;52.604;13.438;2022-12-13T01:08:20;-0.21;76.72
13091;DHT22;6611;52.604;13.438;2022-12-13T01:13:22;-0.17;76.63
13091;DHT22;6611;52.604;13.438;2022-12-13T01:18:23;-0.15;76.06
13091;DHT22;6611;52.604;13.438;2022-12-13T01:23:27;-0.18;76.09
13091;DHT22;6611;52.604;13.438;2022-12-13T01:28:29;-0.17;75.96
13091;DHT22;6611;52.604;13.438;2022-12-13T01:33:31;-0.10;75.14
13091;DHT22;6611;52.604;13.438;2022-12-13T01:38:34;-0.12;74.32
13091;DHT22;6611;52.604;13.438;2022-12-13T01:43:51;-0.07;74.27
13091;DHT22;6611;52.604;13.438;2022-12-13T01:49:02;-0.11;74.42
13091;DHT22;6611;52.604;13.438;2022-12-13T01:54:09;-0.14;73.75
13091;DHT22;6611;52.604;13.438;2022-12-13T01:59:12;-0.10;73.80
13091;DHT22;6611;52.604;13.438;2022-12-13T02:04:21;-0.07;73.53
13091;DHT22;6611;52.604;13.438;2022-12-13T02:09:25;-0.05;73.29
13091;DHT22;6611;52.604;13.438;2022-12-13T02:14:27;-0.15;74.24
13091;DHT22;6611;52.604;13.438;2022-12-13T02:20:00;-0.15;74.20
13091;DHT22;6611;52.604;13.438;2022-12-13T02:25:41;-0.10;74.35
13091;DHT22;6611;52.604;13.438;2022-12-13T02:30:51;-0.07;74.05
13091;DHT22;6611;52.604;13.438;2022-12-13T02:36:02;-0.05;74.67
13091;DHT22;6611;52.604;13.438;2022-12-13T02:41:14;-0.08;74.85
13091;DHT22;6611;52.604;13.438;2022-12-13T02:46:21;-0.11;75.10
13091;DHT22;6611;52.604;13.438;2022-12-13T02:51:24;-0.11;74.94
13091;DHT22;6611;52.604;13.438;2022-12-13T02:56:27;-0.10;75.00
13091;DHT22;6611;52.604;13.438;2022-12-13T03:01:42;-0.12;75.43
13091;DHT22;6611;52.604;13.438;2022-12-13T03:06:56;-0.11;76.18
13091;DHT22;6611;52.604;13.438;2022-12-13T03:12:11;-0.05;75.27
13091;DHT22;6611;52.604;13.438;2022-12-13T03:17:37;-0.11;75.38
13091;DHT22;6611;52.604;13.438;2022-12-13T03:22:40;-0.08;75.41
13091;DHT22;6611;52.604;13.438;2022-12-13T03:27:42;-0.10;75.52
13091;DHT22;6611;52.604;13.438;2022-12-13T03:32:45;-0.10;75.71
13091;DHT22;6611;52.604;13.438;2022-12-13T03:37:47;-0.12;75.75
13091;DHT22;6611;52.604;13.438;2022-12-13T03:42:49;-0.05;75.38
13091;DHT22;6611;52.604;13.438;2022-12-13T03:47:52;-0.15;75.85
13091;DHT22;6611;52.604;13.438;2022-12-13T03:52:57;-0.14;76.02
13091;DHT22;6611;52.604;13.438;2022-12-13T03:57:59;-0.19;76.59
13091;DHT22;6611;52.604;13.438;2022-12-13T04:03:02;-0.17;76.39
13091;DHT22;6611;52.604;13.438;2022-12-13T04:08:04;-0.26;76.86
13091;DHT22;6611;52.604;13.438;2022-12-13T04:13:05;-0.18;76.12
13091;DHT22;6611;52.604;13.438;2022-12-13T04:18:26;-0.18;76.37
13091;DHT22;6611;52.604;13.438;2022-12-13T04:23:28;-0.23;76.62
13091;DHT22;6611;52.604;13.438;2022-12-13T04:28:29;-0.22;76.80
13091;DHT22;6611;52.604;13.438;2022-12-13T04:33:33;-0.14;76.68
13091;DHT22;6611;52.604;13.438;2022-12-13T04:38:35;-0.14;75.98
13091;DHT22;6611;52.604;13.438;2022-12-13T04:43:36;-0.19;76.58
13091;DHT22;6611;52.604;13.438;2022-12-13T04:48:39;-0.17;76.54
13091;DHT22;6611;52.604;13.438;2022-12-13T04:53:41;-0.14;76.39
13091;DHT22;6611;52.604;13.438;2022-12-13T04:58:43;-0.12;75.54
13091;DHT22;6611;52.604;13.438;2022-12-13T05:03:46;-0.11;75.68
13091;DHT22;6611;52.604;13.438;2022-12-13T05:08:47;-0.18;76.48
13091;DHT22;6611;52.604;13.438;2022-12-13T05:13:49;-0.18;76.22
13091;DHT22;6611;52.604;13.438;2022-12-13T05:18:52;-0.25;76.08
13091;DHT22;6611;52.604;13.438;2022-12-13T05:23:54;-0.14;75.98
13091;DHT22;6611;52.604;13.438;2022-12-13T05:28:55;-0.10;75.91
13091;DHT22;6611;52.604;13.438;2022-12-13T05:33:58;-0.05;75.90
13091;DHT22;6611;52.604;13.438;2022-12-13T05:39:00;-0.14;76.31
13091;DHT22;6611;52.604;13.438;2022-12-13T05:44:02;-0.10;76.11
13091;DHT22;6611;52.604;13.438;2022-12-13T05:49:06;-0.17;76.08
13091;DHT22;6611;52.604;13.438;2022-12-13T05:54:07;-0.14;75.88
13091;DHT22;6611;52.604;13.438;2022-12-13T05:59:09;-0.17;76.35
13091;DHT22;6611;52.604;13.438;2022-12-13T06:04:12;-0.11;75.80
13091;DHT22;6611;52.604;13.438;2022-12-13T06:09:15;-0.05;75.58
13091;DHT22;6611;52.604;13.438;2022-12-13T06:14:17;-0.12;75.62
13091;DHT22;6611;52.604;13.438;2022-12-13T06:19:21;-0.14;76.10
13091;DHT22;6611;52.604;13.438;2022-12-13T06:24:23;-0.19;76.46
13091;DHT22;6611;52.604;13.438;2022-12-13T06:29:25;-0.15;76.06
13091;DHT22;6611;52.604;13.438;2022-12-13T06:34:29;-0.10;76.27
13091;DHT22;6611;52.604;13.438;2022-12-13T06:39:30;-0.19;76.52
13091;DHT22;6611;52.604;13.438;2022-12-13T06:44:32;-0.21;76.14
13091;DHT22;6611;52.604;13.438;2022-12-13T06:49:36;-0.12;75.52
13091;DHT22;6611;52.604;13.438;2022-12-13T06:54:38;-0.18;75.61
13091;DHT22;6611;52.604;13.438;2022-12-13T06:59:39;-0.23;75.76
13091;DHT22;6611;52.604;13.438;2022-12-13T07:04:43;-0.22;75.82
13091;DHT22;6611;52.604;13.438;2022-12-13T07:09:45;-0.17;75.98
13091;DHT22;6611;52.604;13.438;2022-12-13T07:14:47;-0.21;76.02
13091;DHT22;6611;52.604;13.438;2022-12-13T07:19:50;-0.15;75.59
13091;DHT22;6611;52.604;13.438;2022-12-13T07:24:52;-0.22;75.96
13091;DHT22;6611;52.604;13.438;2022-12-13T07:29:53;-0.22;75.35
13091;DHT22;6611;52.604;13.438;2022-12-13T07:34:56;-0.23;75.78
13091;DHT22;6611;52.604;13.438;2022-12-13T07:39:58;-0.22;75.79
13091;DHT22;6611;52.604;13.438;2022-12-13T07:45:00;-0.19;76.17
13091;DHT22;6611;52.604;13.438;2022-12-13T07:50:04;-0.28;75.86
13091;DHT22;6611;52.604;13.438;2022-12-13T07:55:06;-0.29;76.36
13091;DHT22;6611;52.604;13.438;2022-12-13T08:00:09;-0.28;76.17
13091;DHT22;6611;52.604;13.438;2022-12-13T08:05:13;-0.26;75.82
13091;DHT22;6611;52.604;13.438;2022-12-13T08:10:14;-0.29;76.27
13091;DHT22;6611;52.604;13.438;2022-12-13T08:15:16;-0.23;75.61
13091;DHT22;6611;52.604;13.438;2022-12-13T08:20:19;-0.25;75.51
13091;DHT22;6611;52.604;13.438;2022-12-13T08:25:21;-0.23;75.57
13091;DHT22;6611;52.604;13.438;2022-12-13T08:30:23;-0.11;75.37
13091;DHT22;6611;52.604;13.438;2022-12-13T08:35:27;-0.07;75.27
13091;DHT22;6611;52.604;13.438;2022-12-13T08:40:29;-0.03;74.56
13091;DHT22;6611;52.604;13.438;2022-12-13T08:45:31;-0.15;75.31
13091;DHT22;6611;52.604;13.438;2022-12-13T08:50:34;-0.03;74.91
13091;DHT22;6611;52.604;13.438;2022-12-13T08:55:36;-0.11;75.13
13091;DHT22;6611;52.604;13.438;2022-12-13T09:00:38;-0.05;75.32
13091;DHT22;6611;52.604;13.438;2022-12-13T09:05:41;0.05;74.66
13091;DHT22;6611;52.604;13.438;2022-12-13T09:10:43;0.18;74.01
13091;DHT22;6611;52.604;13.438;2022-12-13T09:15:45;0.17;74.66
13091;DHT22;6611;52.604;13.438;2022-12-13T09:20:49;0.20;74.61
13091;DHT22;6611;52.604;13.438;2022-12-13T09:25:53;0.17;73.18
13091;DHT22;6611;52.604;13.438;2022-12-13T09:30:56;0.00;73.75
13091;DHT22;6611;52.604;13.438;2022-12-13T09:36:02;-0.01;74.06
13091;DHT22;6611;52.604;13.438;2022-12-13T09:41:16;0.07;74.25
13091;DHT22;6611;52.604;13.438;2022-12-13T09:46:26;0.03;74.15
13091;DHT22;6611;52.604;13.438;2022-12-13T09:51:31;0.07;74.02
13091;DHT22;6611;52.604;13.438;2022-12-13T09:56:33;0.03;74.19
13091;DHT22;6611;52.604;13.438;2022-12-13T10:01:35;0.02;73.69
13091;DHT22;6611;52.604;13.438;2022-12-13T10:06:38;-0.11;75.15
13091;DHT22;6611;52.604;13.438;2022-12-13T10:11:46;-0.07;74.92
13091;DHT22;6611;52.604;13.438;2022-12-13T10:16:50;0.00;75.48
13091;DHT22;6611;52.604;13.438;2022-12-13T10:21:54;0.11;73.97
13091;DHT22;6611;52.604;13.438;2022-12-13T10:26:57;0.09;74.25
13091;DHT22;6611;52.604;13.438;2022-12-13T10:32:10;0.11;74.42
13091;DHT22;6611;52.604;13.438;2022-12-13T10:37:27;0.11;74.64
13091;DHT22;6611;52.604;13.438;2022-12-13T10:42:29;0.13;74.45
13091;DHT22;6611;52.604;13.438;2022-12-13T10:47:31;0.10;75.01
13091;DHT22;6611;52.604;13.438;2022-12-13T10:52:39;0.16;75.78
13091;DHT22;6611;52.604;13.438;2022-12-13T10:57:49;0.18;75.32
13091;DHT22;6611;52.604;13.438;2022-12-13T11:02:53;0.16;75.39
13091;DHT22;6611;52.604;13.438;2022-12-13T11:08:11;0.17;75.83
13091;DHT22;6611;52.604;13.438;2022-12-13T11:13:31;0.14;74.76
13091;DHT22;6611;52.604;13.438;2022-12-13T11:18:35;0.13;74.35
13091;DHT22;6611;52.604;13.438;2022-12-13T11:23:43;0.20;74.08
13091;DHT22;6611;52.604;13.438;2022-12-13T11:28:59;0.03;74.11
13091;DHT22;6611;52.604;13.438;2022-12-13T11:34:11;0.13;74.92
13091;DHT22;6611;52.604;13.438;2022-12-13T11:39:20;0.24;73.40
13091;DHT22;6611;52.604;13.438;2022-12-13T11:44:39;0.27;73.08
13091;DHT22;6611;52.604;13.438;2022-12-13T11:49:43;0.30;72.84
13091;DHT22;6611;52.604;13.438;2022-12-13T11:54:51;0.36;73.09
13091;DHT22;6611;52.604;13.438;2022-12-13T11:59:59;0.23;73.11
13091;DHT22;6611;52.604;13.438;2022-12-13T12:05:05;0.27;72.39
13091;DHT22;6611;52.604;13.438;2022-12-13T12:10:21;0.24;72.92
13091;DHT22;6611;52.604;13.438;2022-12-13T12:15:28;0.28;72.41
13091;DHT22;6611;52.604;13.438;2022-12-13T12:20:43;0.14;72.88
13091;DHT22;6611;52.604;13.438;2022-12-13T12:25:52;0.34;72.20
13091;DHT22;6611;52.604;13.438;2022-12-13T12:31:02;0.34;72.64
13091;DHT22;6611;52.604;13.438;2022-12-13T12:36:26;0.44;71.96
13091;DHT22;6611;52.604;13.438;2022-12-13T12:41:39;0.36;72.81
13091;DHT22;6611;52.604;13.438;2022-12-13T12:46:53;0.45;71.71
13091;DHT22;6611;52.604;13.438;2022-12-13T12:52:01;0.41;71.71
13091;DHT22;6611;52.604;13.438;2022-12-13T12:57:14;0.36;72.25
13091;DHT22;6611;52.604;13.438;2022-12-13T13:02:37;0.40;71.82
13091;DHT22;6611;52.604;13.438;2022-12-13T13:07:45;0.38;72.44
13091;DHT22;6611;52.604;13.438;2022-12-13T13:12:51;0.34;72.70
13091;DHT22;6611;52.604;13.438;2022-12-13T13:17:52;0.28;73.98
13091;DHT22;6611;52.604;13.438;2022-12-13T13:22:54;0.30;74.56
13091;DHT22;6611;52.604;13.438;2022-12-13T13:28:03;0.37;73.38
13091;DHT22;6611;52.604;13.438;2022-12-13T13:33:38;0.34;73.39
13091;DHT22;6611;52.604;13.438;2022-12-13T13:38:51;0.27;72.52
13091;DHT22;6611;52.604;13.438;2022-12-13T13:43:59;0.25;73.05
13091;DHT22;6611;52.604;13.438;2022-12-13T13:49:05;0.36;72.81
13091;DHT22;6611;52.604;13.438;2022-12-13T13:54:36;0.30;72.35
13091;DHT22;6611;52.604;13.438;2022-12-13T14:00:10;0.28;73.23
13091;DHT22;6611;52.604;13.438;2022-12-13T14:05:50;0.41;72.25
13091;DHT22;6611;52.604;13.438;2022-12-13T14:11:18;0.31;72.39
13091;DHT22;6611;52.604;13.438;2022-12-13T14:17:00;0.23;73.41
13091;DHT22;6611;52.604;13.438;2022-12-13T14:22:14;0.14;74.08
13091;DHT22;6611;52.604;13.438;2022-12-13T14:27:27;0.11;74.09
13091;DHT22;6611;52.604;13.438;2022-12-13T14:32:33;0.17;74.08
13091;DHT22;6611;52.604;13.438;2022-12-13T14:37:36;0.21;74.23
13091;DHT22;6611;52.604;13.438;2022-12-13T14:42:40;0.23;74.15
13091;DHT22;6611;52.604;13.438;2022-12-13T14:47:43;0.13;74.86
13091;DHT22;6611;52.604;13.438;2022-12-13T14:52:46;0.18;74.39
13091;DHT22;6611;52.604;13.438;2022-12-13T14:57:51;0.24;74.06
13091;DHT22;6611;52.604;13.438;2022-12-13T15:02:56;0.41;73.28
13091;DHT22;6611;52.604;13.438;2022-12-13T15:07:59;0.28;73.98
13091;DHT22;6611;52.604;13.438;2022-12-13T15:13:02;0.10;74.73
13091;DHT22;6611;52.604;13.438;2022-12-13T15:18:15;0.03;75.85
13091;DHT22;6611;52.604;13.438;2022-12-13T15:23:21;0.02;76.62
13091;DHT22;6611;52.604;13.438;2022-12-13T15:28:26;0.00;76.48
13091;DHT22;6611;52.604;13.438;2022-12-13T15:33:29;-0.04;77.05
13091;DHT22;6611;52.604;13.438;2022-12-13T15:38:31;-0.08;77.30
13091;DHT22;6611;52.604;13.438;2022-12-13T15:43:37;-0.11;77.17
13091;DHT22;6611;52.604;13.438;2022-12-13T15:48:44;-0.15;78.35
13091;DHT22;6611;52.604;13.438;2022-12-13T15:54:00;-0.15;77.56
13091;DHT22;6611;52.604;13.438;2022-12-13T15:59:03;-0.11;76.94
13091;DHT22;6611;52.604;13.438;2022-12-13T16:04:06;-0.15;77.50
13091;DHT22;6611;52.604;13.438;2022-12-13T16:09:16;-0.05;76.90
13091;DHT22;6611;52.604;13.438;2022-12-13T16:14:25;-0.07;76.82
13091;DHT22;6611;52.604;13.438;2022-12-13T16:19:29;-0.21;78.96
13091;DHT22;6611;52.604;13.438;2022-12-13T16:24:31;-0.25;78.62
13091;DHT22;6611;52.604;13.438;2022-12-13T16:29:33;-0.36;78.69
13091;DHT22;6611;52.604;13.438;2022-12-13T16:34:36;-0.45;79.22
13091;DHT22;6611;52.604;13.438;2022-12-13T16:39:38;-0.56;79.62
13091;DHT22;6611;52.604;13.438;2022-12-13T16:44:40;-0.60;79.17
13091;DHT22;6611;52.604;13.438;2022-12-13T16:49:44;-0.67;79.86
13091;DHT22;6611;52.604;13.438;2022-12-13T16:54:46;-0.60;80.10
13091;DHT22;6611;52.604;13.438;2022-12-13T16:59:48;-0.56;79.32
13091;DHT22;6611;52.604;13.438;2022-12-13T17:04:51;-0.62;78.99
13091;DHT22;6611;52.604;13.438;2022-12-13T17:09:53;-0.64;78.36
13091;DHT22;6611;52.604;13.438;2022-12-13T17:14:54;-0.74;78.24
13091;DHT22;6611;52.604;13.438;2022-12-13T17:19:57;-0.77;78.34
13091;DHT22;6611;52.604;13.438;2022-12-13T17:24:59;-0.91;78.12
13091;DHT22;6611;52.604;13.438;2022-12-13T17:30:01;-1.00;78.98
13091;DHT22;6611;52.604;13.438;2022-12-13T17:35:05;-1.12;79.52
13091;DHT22;6611;52.604;13.438;2022-12-13T17:40:07;-1.12;79.58
13091;DHT22;6611;52.604;13.438;2022-12-13T17:45:10;-1.13;78.61
13091;DHT22;6611;52.604;13.438;2022-12-13T17:50:14;-1.29;79.09
13091;DHT22;6611;52.604;13.438;2022-12-13T17:55:16;-1.42;78.82
13091;DHT22;6611;52.604;13.438;2022-12-13T18:00:18;-1.50;78.88
13091;DHT22;6611;52.604;13.438;2022-12-13T18:05:21;-1.68;79.00
13091;DHT22;6611;52.604;13.438;2022-12-13T18:10:24;-1.68;79.36
13091;DHT22;6611;52.604;13.438;2022-12-13T18:15:26;-1.73;79.48
13091;DHT22;6611;52.604;13.438;2022-12-13T18:20:29;-1.75;79.14
13091;DHT22;6611;52.604;13.438;2022-12-13T18:25:30;-1.85;79.59
13091;DHT22;6611;52.604;13.438;2022-12-13T18:30:32;-1.87;79.60
13091;DHT22;6611;52.604;13.438;2022-12-13T18:35:35;-1.91;79.16
13091;DHT22;6611;52.604;13.438;2022-12-13T18:40:37;-1.84;79.43
13091;DHT22;6611;52.604;13.438;2022-12-13T18:45:38;-1.92;79.78
13091;DHT22;6611;52.604;13.438;2022-12-13T18:50:41;-2.02;79.48
13091;DHT22;6611;52.604;13.438;2022-12-13T18:55:43;-2.10;80.00
13091;DHT22;6611;52.604;13.438;2022-12-13T19:00:45;-2.12;79.77
13091;DHT22;6611;52.604;13.438;2022-12-13T19:05:50;-2.19;80.09
13091;DHT22;6611;52.604;13.438;2022-12-13T19:10:52;-2.13;80.12
13091;DHT22;6611;52.604;13.438;2022-12-13T19:15:55;-2.05;79.63
13091;DHT22;6611;52.604;13.438;2022-12-13T19:20:59;-2.23;79.54
13091;DHT22;6611;52.604;13.438;2022-12-13T19:26:03;-2.32;79.53
13091;DHT22;6611;52.604;13.438;2022-12-13T19:31:05;-2.37;79.87
13091;DHT22;6611;52.604;13.438;2022-12-13T19:36:09;-2.36;79.99
13091;DHT22;6611;52.604;13.438;2022-12-13T19:41:13;-2.34;80.36
13091;DHT22;6611;52.604;13.438;2022-12-13T19:46:15;-2.30;79.65
13091;DHT22;6611;52.604;13.438;2022-12-13T19:51:18;-2.28;79.91
13091;DHT22;6611;52.604;13.438;2022-12-13T19:56:21;-2.32;79.66
13091;DHT22;6611;52.604;13.438;2022-12-13T20:01:23;-2.36;79.41
13091;DHT22;6611;52.604;13.438;2022-12-13T20:06:26;-2.42;79.58
13091;DHT22;6611;52.604;13.438;2022-12-13T20:11:27;-2.40;79.30
13091;DHT22;6611;52.604;13.438;2022-12-13T20:16:30;-2.46;79.51
13091;DHT22;6611;52.604;13.438;2022-12-13T20:21:33;-2.54;78.84
13091;DHT22;6611;52.604;13.438;2022-12-13T20:26:35;-2.46;77.96
13091;DHT22;6611;52.604;13.438;2022-12-13T20:31:37;-2.61;78.00
13091;DHT22;6611;52.604;13.438;2022-12-13T20:36:41;-2.62;78.85
13091;DHT22;6611;52.604;13.438;2022-12-13T20:41:43;-2.60;78.44
13091;DHT22;6611;52.604;13.438;2022-12-13T20:46:45;-2.65;77.97
13091;DHT22;6611;52.604;13.438;2022-12-13T20:51:48;-2.60;78.06
13091;DHT22;6611;52.604;13.438;2022-12-13T20:56:50;-2.71;78.49
13091;DHT22;6611;52.604;13.438;2022-12-13T21:01:52;-2.82;78.43
13091;DHT22;6611;52.604;13.438;2022-12-13T21:06:55;-2.91;78.04
13091;DHT22;6611;52.604;13.438;2022-12-13T21:11:57;-3.09;78.61
13091;DHT22;6611;52.604;13.438;2022-12-13T21:17:00;-3.17;79.22
13091;DHT22;6611;52.604;13.438;2022-12-13T21:22:05;-3.27;79.29
13091;DHT22;6611;52.604;13.438;2022-12-13T21:27:07;-3.37;79.24
13091;DHT22;6611;52.604;13.438;2022-12-13T21:32:09;-3.58;79.73
13091;DHT22;6611;52.604;13.438;2022-12-13T21:37:12;-3.67;80.49
13091;DHT22;6611;52.604;13.438;2022-12-13T21:42:14;-3.74;80.29
13091;DHT22;6611;52.604;13.438;2022-12-13T21:47:15;-3.86;80.28
13091;DHT22;6611;52.604;13.438;2022-12-13T21:52:18;-3.87;80.24
13091;DHT22;6611;52.604;13.438;2022-12-13T21:57:20;-3.99;80.98
13091;DHT22;6611;52.604;13.438;2022-12-13T22:02:39;-4.09;81.36
13091;DHT22;6611;52.604;13.438;2022-12-13T22:07:42;-4.18;81.05
13091;DHT22;6611;52.604;13.438;2022-12-13T22:12:43;-4.18;81.43
13091;DHT22;6611;52.604;13.438;2022-12-13T22:17:45;-4.17;79.88
13091;DHT22;6611;52.604;13.438;2022-12-13T22:22:48;-4.27;80.96
13091;DHT22;6611;52.604;13.438;2022-12-13T22:27:51;-4.40;80.46
13091;DHT22;6611;52.604;13.438;2022-12-13T22:32:54;-4.40;80.80
13091;DHT22;6611;52.604;13.438;2022-12-13T22:37:57;-4.42;80.55
13091;DHT22;6611;52.604;13.438;2022-12-13T22:43:00;-4.48;80.50
13091;DHT22;6611;52.604;13.438;2022-12-13T22:48:03;-4.55;81.28
13091;DHT22;6611;52.604;13.438;2022-12-13T22:53:06;-4.51;81.22
13091;DHT22;6611;52.604;13.438;2022-12-13T22:58:08;-4.62;80.53
13091;DHT22;6611;52.604;13.438;2022-12-13T23:03:09;-4.68;81.69
13091;DHT22;6611;52.604;13.438;2022-12-13T23:08:12;-4.71;81.83
13091;DHT22;6611;52.604;13.438;2022-12-13T23:13:14;-4.64;81.86
13091;DHT22;6611;52.604;13.438;2022-12-13T23:18:16;-4.58;81.39
13091;DHT22;6611;52.604;13.438;2022-12-13T23:23:19;-4.58;80.92
13091;DHT22;6611;52.604;13.438;2022-12-13T23:28:21;-4.61;81.32
13091;DHT22;6611;52.604;13.438;2022-12-13T23:33:23;-4.54;82.27
13091;DHT22;6611;52.604;13.438;2022-12-13T23:38:26;-4.44;80.79
13091;DHT22;6611;52.604;13.438;2022-12-13T23:43:28;-4.44;81.45
13091;DHT22;6611;52.604;13.438;2022-12-13T23:48:30;-4.52;81.55
13091;DHT22;6611;52.604;13.438;2022-12-13T23:53:35;-4.52;81.94
13091;DHT22;6611;52.604;13.438;2022-12-13T23:58:39;-4.51;81.66
